Time;durP1;ratioP1;P1;durP2;ratioP2;P2;SDS_P1;SDS_P2;PMS_P1;PMS_P2;Temp;Humidity;BMP_temperature;BMP_pressure;BME280_temperature;BME280_humidity;BME280_pressure;Samples;Min_cycle;Max_cycle;Signal;HPM_P1;HPM_P2
2022/11/02 00:02:12;;;;;;;21.95;12.75;;;19.50;64.70;;;;;;5074627;28;20482;-81
2022/11/02 00:04:38;;;;;;;21.95;11.18;;;19.70;64.10;;;;;;5079641;28;20591;-85
2022/11/02 00:07:03;;;;;;;20.20;11.77;;;19.90;63.60;;;;;;5073695;28;20020;-82
2022/11/02 00:09:29;;;;;;;21.77;11.77;;;19.90;63.60;;;;;;5076239;28;20511;-81
2022/11/02 00:11:55;;;;;;;24.38;12.23;;;20.10;63.30;;;;;;5075162;28;20033;-88
2022/11/02 00:14:20;;;;;;;22.50;13.48;;;20.00;63.40;;;;;;5093972;28;20476;-82
2022/11/02 00:16:46;;;;;;;26.42;13.75;;;19.60;64.70;;;;;;5093501;28;20024;-79
2022/11/02 00:19:12;;;;;;;23.35;13.73;;;19.70;64.30;;;;;;5093746;28;20111;-86
2022/11/02 00:21:38;;;;;;;27.60;14.82;;;19.70;64.50;;;;;;5093849;28;20433;-88
2022/11/02 00:24:04;;;;;;;28.63;14.00;;;19.80;64.10;;;;;;5077160;28;20036;-83
2022/11/02 00:26:33;;;;;;;25.08;14.57;;;19.90;64.30;;;;;;5093373;28;20028;-82
2022/11/02 00:28:58;;;;;;;27.42;15.48;;;20.00;64.30;;;;;;5094832;28;20039;-84
2022/11/02 00:31:24;;;;;;;26.75;16.05;;;19.90;63.90;;;;;;5082282;28;20380;-82
2022/11/02 00:33:50;;;;;;;27.88;14.73;;;19.70;64.50;;;;;;5073535;28;20021;-85
2022/11/02 00:36:16;;;;;;;25.85;14.65;;;19.80;64.30;;;;;;5074192;28;20055;-81
2022/11/02 00:38:42;;;;;;;26.48;14.82;;;19.90;64.70;;;;;;5072969;28;20048;-80
2022/11/02 00:41:08;;;;;;;30.48;15.93;;;20.00;64.30;;;;;;5074113;28;20032;-82
2022/11/02 00:43:33;;;;;;;24.05;14.93;;;20.30;63.70;;;;;;5074752;28;20056;-83
2022/11/02 00:46:00;;;;;;;27.27;15.95;;;20.30;63.70;;;;;;5074059;28;20086;-82
2022/11/02 00:48:25;;;;;;;28.63;15.57;;;20.30;63.70;;;;;;5080297;28;20476;-81
2022/11/02 00:50:51;;;;;;;26.33;15.80;;;20.20;63.70;;;;;;5087547;28;20035;-83
2022/11/02 00:53:17;;;;;;;25.70;16.05;;;20.30;63.60;;;;;;5090113;28;20028;-83
2022/11/02 00:55:43;;;;;;;24.42;14.13;;;20.10;63.70;;;;;;5084438;28;20028;-84
2022/11/02 00:58:09;;;;;;;24.92;14.93;;;20.30;63.40;;;;;;5090779;28;20063;-83
2022/11/02 01:00:34;;;;;;;28.88;16.67;;;19.90;64.20;;;;;;5072098;28;20079;-82
2022/11/02 01:03:01;;;;;;;24.73;15.18;;;20.10;63.90;;;;;;5072198;28;20032;-82
2022/11/02 01:05:27;;;;;;;27.77;16.63;;;20.20;63.90;;;;;;5078077;28;20062;-85
2022/11/02 01:07:52;;;;;;;27.58;16.48;;;20.10;63.90;;;;;;5075125;28;20535;-82
2022/11/02 01:10:18;;;;;;;31.42;16.13;;;19.90;63.80;;;;;;5074192;28;20032;-82
2022/11/02 01:12:44;;;;;;;27.88;15.77;;;19.80;64.60;;;;;;5087242;28;20020;-82
2022/11/02 01:15:10;;;;;;;28.35;16.60;;;19.80;64.90;;;;;;5072199;28;20036;-84
2022/11/02 01:17:36;;;;;;;28.42;15.65;;;19.80;64.70;;;;;;5072168;28;20021;-84
2022/11/02 01:20:02;;;;;;;29.13;15.55;;;19.80;64.70;;;;;;5073016;28;20037;-81
2022/11/02 01:22:28;;;;;;;25.60;15.70;;;19.90;64.80;;;;;;5081338;28;20365;-83
2022/11/02 01:24:56;;;;;;;31.45;16.70;;;20.10;64.20;;;;;;5072047;28;20049;-83
2022/11/02 01:27:21;;;;;;;24.95;15.57;;;19.90;64.50;;;;;;5072272;28;20025;-87
2022/11/02 01:29:47;;;;;;;28.98;16.08;;;19.80;64.80;;;;;;5072304;28;20039;-85
2022/11/02 01:32:13;;;;;;;27.83;16.83;;;19.80;64.80;;;;;;5073536;28;20017;-88
2022/11/02 01:34:38;;;;;;;27.48;16.25;;;19.80;64.20;;;;;;5072190;28;20025;-82
2022/11/02 01:37:04;;;;;;;29.50;17.00;;;19.90;65.00;;;;;;5071838;28;20093;-83
2022/11/02 01:39:29;;;;;;;30.60;17.60;;;20.00;64.50;;;;;;5072221;28;20698;-84
2022/11/02 01:41:55;;;;;;;30.70;16.88;;;20.00;64.30;;;;;;5072442;28;20078;-85
2022/11/02 01:44:29;;;;;;;29.60;15.88;;;20.10;64.60;;;;;;5071641;28;20036;-81
2022/11/02 01:47:21;;;;;;;28.15;17.48;;;20.20;64.20;;;;;;5072927;28;20025;-83
2022/11/02 01:49:50;;;;;;;30.25;17.67;;;20.20;63.60;;;;;;5062962;28;20135;-81
2022/11/02 01:52:27;;;;;;;29.55;17.27;;;20.20;63.90;;;;;;5080250;28;20146;-83
2022/11/02 01:55:00;;;;;;;29.60;17.90;;;20.10;64.00;;;;;;5071457;28;20086;-82
2022/11/02 01:57:27;;;;;;;26.92;16.98;;;20.20;64.00;;;;;;5076276;28;20020;-85
2022/11/02 02:00:03;;;;;;;31.17;17.88;;;20.30;64.10;;;;;;5071744;28;20044;-83
2022/11/02 02:02:29;;;;;;;32.63;17.58;;;20.30;63.80;;;;;;5090598;28;20024;-84
2022/11/02 02:05:15;;;;;;;29.50;18.17;;;20.30;63.70;;;;;;5081239;28;20035;-80
2022/11/02 02:07:41;;;;;;;28.92;17.77;;;20.50;63.70;;;;;;5075311;28;20422;-82
2022/11/02 02:10:07;;;;;;;30.83;18.65;;;20.50;63.60;;;;;;5072971;28;20079;-84
2022/11/02 02:12:36;;;;;;;32.53;18.58;;;20.50;63.20;;;;;;5078284;28;20020;-83
2022/11/02 02:15:02;;;;;;;28.15;17.55;;;20.20;63.70;;;;;;5075690;28;20028;-81
2022/11/02 02:17:39;;;;;;;30.70;17.52;;;20.10;63.90;;;;;;5075416;28;20112;-82
2022/11/02 02:20:05;;;;;;;29.95;17.52;;;20.20;64.00;;;;;;5076218;28;20024;-82
2022/11/02 02:22:46;;;;;;;29.40;17.52;;;20.50;63.40;;;;;;5094561;28;20047;-85
2022/11/02 02:25:30;;;;;;;31.88;18.25;;;20.70;62.70;;;;;;5082568;28;20032;-82
2022/11/02 02:28:02;;;;;;;30.95;17.80;;;20.80;62.80;;;;;;5075307;28;20068;-82
2022/11/02 02:30:33;;;;;;;28.83;17.70;;;20.90;62.70;;;;;;5094621;28;20048;-82
2022/11/02 02:33:12;;;;;;;32.70;18.55;;;21.00;62.10;;;;;;5093969;28;20475;-81
2022/11/02 02:35:40;;;;;;;31.13;18.15;;;21.10;62.00;;;;;;5080424;28;20035;-82
2022/11/02 02:38:13;;;;;;;30.02;18.15;;;21.10;61.80;;;;;;5082516;28;20032;-81
2022/11/02 02:41:09;;;;;;;27.92;17.38;;;21.20;61.70;;;;;;5083640;28;20020;-81
2022/11/02 02:43:57;;;;;;;29.40;17.48;;;21.20;61.90;;;;;;5071416;28;20493;-81
2022/11/02 02:46:29;;;;;;;33.25;18.45;;;21.00;62.10;;;;;;5075065;28;20048;-82
2022/11/02 02:48:56;;;;;;;28.38;15.98;;;21.00;62.10;;;;;;5074095;28;20039;-80
2022/11/02 02:51:30;;;;;;;30.35;18.23;;;21.00;62.30;;;;;;5092845;28;20414;-81
2022/11/02 02:54:03;;;;;;;33.58;18.23;;;21.00;62.30;;;;;;5085312;28;20059;-81
2022/11/02 02:56:35;;;;;;;34.38;18.40;;;21.00;62.20;;;;;;5087469;28;20062;-81
2022/11/02 02:59:30;;;;;;;33.88;19.17;;;21.00;62.50;;;;;;5095155;28;20044;-83
2022/11/02 03:01:57;;;;;;;29.08;17.40;;;21.00;62.00;;;;;;5074820;28;20060;-82
2022/11/02 03:04:24;;;;;;;32.80;18.00;;;21.00;62.10;;;;;;5074164;28;20029;-82
2022/11/02 03:06:53;;;;;;;30.38;18.17;;;21.00;62.10;;;;;;5074758;28;20123;-82
2022/11/02 03:09:35;;;;;;;29.75;17.77;;;21.00;62.40;;;;;;5074528;28;20086;-82
2022/11/02 03:12:11;;;;;;;31.10;18.30;;;21.00;62.00;;;;;;5074673;28;20031;-82
2022/11/02 03:15:23;;;;;;;28.05;17.92;;;20.90;62.60;;;;;;5074184;28;20028;-83
2022/11/02 03:18:23;;;;;;;31.73;17.70;;;21.00;61.90;;;;;;5077630;28;20399;-82
2022/11/02 03:21:26;;;;;;;36.70;18.40;;;20.90;61.90;;;;;;5073737;28;20060;-87
2022/11/02 03:24:24;;;;;;;35.47;18.88;;;20.40;63.30;;;;;;5072225;28;20258;-83
2022/11/02 03:27:23;;;;;;;31.55;18.50;;;20.20;63.80;;;;;;5036911;28;20034;-82
2022/11/02 03:30:03;;;;;;;31.52;18.42;;;19.70;64.90;;;;;;5033330;28;20045;-85
2022/11/02 03:32:54;;;;;;;31.88;18.17;;;19.60;65.30;;;;;;5037050;28;20028;-85
2022/11/02 03:35:41;;;;;;;36.45;20.38;;;19.50;66.00;;;;;;5037104;28;20071;-84
2022/11/02 03:38:16;;;;;;;35.78;20.20;;;19.20;66.20;;;;;;5053761;28;20108;-82
2022/11/02 03:40:46;;;;;;;36.33;21.58;;;19.20;66.50;;;;;;5037113;28;20029;-83
2022/11/02 03:43:13;;;;;;;35.80;19.83;;;19.10;66.60;;;;;;5053464;28;20037;-82
2022/11/02 03:45:43;;;;;;;34.65;19.85;;;19.10;66.80;;;;;;5042584;28;20128;-83
2022/11/02 03:48:11;;;;;;;34.67;20.30;;;19.10;67.20;;;;;;5058754;28;20033;-81
2022/11/02 03:50:43;;;;;;;36.47;20.23;;;19.20;67.40;;;;;;5066042;28;20049;-80
2022/11/02 03:53:34;;;;;;;34.15;20.42;;;19.40;66.60;;;;;;5071724;28;20472;-81
2022/11/02 03:56:06;;;;;;;35.83;20.25;;;19.70;66.10;;;;;;5074410;28;20036;-82
2022/11/02 03:58:32;;;;;;;35.50;20.00;;;19.90;65.40;;;;;;5064115;28;20028;-82
2022/11/02 04:01:02;;;;;;;37.42;21.02;;;20.10;64.70;;;;;;5042275;28;20041;-82
2022/11/02 04:03:30;;;;;;;37.38;21.27;;;20.20;64.80;;;;;;5089819;28;20040;-81
2022/11/02 04:05:56;;;;;;;48.05;21.40;;;20.30;64.40;;;;;;5074926;28;20024;-85
2022/11/02 04:08:29;;;;;;;36.30;21.77;;;19.90;65.00;;;;;;5073257;28;20036;-82
2022/11/02 04:16:23;;;;;;;35.83;21.35;;;19.70;65.70;;;;;;5085543;28;20133;-82
2022/11/02 04:21:33;;;;;;;37.42;22.00;;;19.90;65.50;;;;;;5073647;28;20067;-85
2022/11/02 04:26:43;;;;;;;34.95;20.88;;;19.90;65.50;;;;;;5093376;28;20047;-83
2022/11/02 04:29:09;;;;;;;31.10;19.75;;;20.00;65.00;;;;;;5073663;28;20032;-82
2022/11/02 04:31:34;;;;;;;37.88;21.73;;;20.00;65.00;;;;;;5078788;28;20028;-81
2022/11/02 04:34:00;;;;;;;37.92;21.85;;;20.10;65.00;;;;;;5089402;28;20031;-81
2022/11/02 04:36:29;;;;;;;33.65;19.10;;;20.30;64.40;;;;;;5090534;28;20105;-81
2022/11/02 04:38:55;;;;;;;38.17;20.58;;;20.00;64.30;;;;;;5090817;28;20028;-87
2022/11/02 04:44:07;;;;;;;34.88;21.52;;;19.60;66.20;;;;;;5092517;28;20031;-82
2022/11/02 04:46:35;;;;;;;35.03;21.60;;;19.50;66.30;;;;;;5093417;28;20049;-81
2022/11/02 04:49:01;;;;;;;40.00;21.95;;;19.60;66.30;;;;;;5076675;28;20047;-83
2022/11/02 04:51:31;;;;;;;36.97;22.02;;;19.80;66.00;;;;;;5089084;28;20384;-88
2022/11/02 04:53:58;;;;;;;36.67;21.58;;;19.90;65.10;;;;;;5073161;28;20032;-81
2022/11/02 04:56:25;;;;;;;34.53;21.52;;;19.90;65.90;;;;;;5086537;28;20021;-84
2022/11/02 04:58:55;;;;;;;36.58;21.10;;;19.60;66.10;;;;;;5089670;28;20035;-83
2022/11/02 05:01:23;;;;;;;46.60;29.20;;;19.50;66.20;;;;;;5092124;28;20027;-82
2022/11/02 05:03:50;;;;;;;53.75;31.85;;;19.40;66.70;;;;;;5084574;28;20032;-84
2022/11/02 05:06:17;;;;;;;49.58;28.90;;;19.50;66.20;;;;;;5080791;28;20055;-85
2022/11/02 05:08:43;;;;;;;44.72;26.55;;;19.90;65.50;;;;;;5090304;28;20040;-81
2022/11/02 05:11:10;;;;;;;42.00;24.58;;;19.70;65.80;;;;;;5079938;28;20024;-81
2022/11/02 05:13:37;;;;;;;39.28;22.60;;;19.60;66.70;;;;;;5091522;28;20646;-91
2022/11/02 05:16:04;;;;;;;37.65;23.38;;;19.60;66.10;;;;;;5076350;28;20020;-82
2022/11/02 05:18:31;;;;;;;36.97;22.95;;;19.60;65.80;;;;;;5071101;28;20016;-84
2022/11/02 05:20:58;;;;;;;47.67;26.02;;;19.60;66.50;;;;;;5071834;28;20050;-81
2022/11/02 05:23:24;;;;;;;43.83;26.08;;;19.80;65.90;;;;;;5071820;28;20028;-79
2022/11/02 05:26:14;;;;;;;35.72;21.65;;;19.80;66.50;;;;;;5073202;28;20033;-86
2022/11/02 05:28:39;;;;;;;41.63;23.80;;;19.70;65.80;;;;;;5071379;28;20044;-81
2022/11/02 05:31:05;;;;;;;38.47;22.92;;;19.20;68.10;;;;;;5074627;28;20069;-79
2022/11/02 05:33:32;;;;;;;36.30;22.38;;;19.50;67.20;;;;;;5091452;28;20039;-80
2022/11/02 05:35:58;;;;;;;44.78;24.52;;;19.60;66.90;;;;;;5087865;28;20111;-81
2022/11/02 05:38:25;;;;;;;40.63;22.55;;;19.60;66.70;;;;;;5080821;28;20446;-82
2022/11/02 05:40:55;;;;;;;37.85;22.40;;;19.20;67.70;;;;;;5092293;28;20032;-82
2022/11/02 05:43:21;;;;;;;37.53;22.45;;;19.30;67.40;;;;;;5087705;28;20068;-79
2022/11/02 05:45:55;;;;;;;35.53;22.23;;;19.20;67.80;;;;;;5088593;28;20063;-83
2022/11/02 05:48:22;;;;;;;37.60;21.52;;;19.30;67.20;;;;;;5079019;28;20036;-82
2022/11/02 05:50:48;;;;;;;39.80;23.33;;;19.40;68.10;;;;;;5073135;28;20620;-81
2022/11/02 05:53:14;;;;;;;38.05;21.45;;;19.50;67.10;;;;;;5091878;28;20417;-89
2022/11/02 05:55:40;;;;;;;34.15;21.05;;;19.60;66.70;;;;;;5073825;28;20461;-84
2022/11/02 05:58:05;;;;;;;35.05;21.58;;;19.60;67.10;;;;;;5074314;28;20021;-81
2022/11/02 06:00:31;;;;;;;35.38;21.65;;;19.80;66.10;;;;;;5084556;28;20043;-82
2022/11/02 06:02:57;;;;;;;39.47;22.77;;;19.80;66.80;;;;;;5078168;28;20031;-81
2022/11/02 06:05:24;;;;;;;40.22;22.38;;;19.80;66.00;;;;;;5082537;28;20028;-82
2022/11/02 06:07:50;;;;;;;37.53;21.58;;;19.80;66.20;;;;;;5071990;28;20107;-83
2022/11/02 06:10:17;;;;;;;32.65;20.48;;;19.80;66.50;;;;;;5077997;28;20174;-83
2022/11/02 06:12:43;;;;;;;34.85;20.70;;;19.60;67.00;;;;;;5090914;28;20024;-83
2022/11/02 06:15:10;;;;;;;36.05;21.30;;;19.70;67.00;;;;;;5091265;28;20062;-83
2022/11/02 06:17:39;;;;;;;34.75;20.02;;;19.90;66.60;;;;;;5090972;28;20020;-83
2022/11/02 06:20:06;;;;;;;34.42;20.50;;;20.20;65.60;;;;;;5092030;28;20020;-84
2022/11/02 06:22:38;;;;;;;35.88;20.95;;;20.30;65.60;;;;;;5087933;28;20082;-83
2022/11/02 06:25:07;;;;;;;32.70;19.75;;;20.30;65.80;;;;;;5091977;28;20031;-83
2022/11/02 06:27:33;;;;;;;32.50;20.08;;;20.40;65.60;;;;;;5087230;28;20549;-83
2022/11/02 06:29:59;;;;;;;30.27;19.83;;;20.20;65.60;;;;;;5086292;28;20060;-82
2022/11/02 06:32:25;;;;;;;34.58;21.75;;;19.80;66.80;;;;;;5082598;28;20571;-83
2022/11/02 06:34:50;;;;;;;31.25;20.30;;;19.90;66.90;;;;;;5090670;28;20024;-82
2022/11/02 06:37:16;;;;;;;37.95;21.38;;;20.20;66.00;;;;;;5082767;28;20024;-80
2022/11/02 06:39:42;;;;;;;32.97;20.38;;;20.60;65.00;;;;;;5088212;28;20033;-81
2022/11/02 06:42:07;;;;;;;35.15;25.73;;;20.70;65.10;;;;;;5081435;28;20024;-81
2022/11/02 06:44:33;;;;;;;34.38;21.33;;;20.70;65.00;;;;;;5083335;28;20029;-79
2022/11/02 06:46:59;;;;;;;35.17;21.00;;;20.80;64.60;;;;;;5078491;28;20031;-81
2022/11/02 06:49:24;;;;;;;34.22;20.55;;;20.90;64.30;;;;;;5090999;28;20143;-80
2022/11/02 06:51:50;;;;;;;30.60;19.45;;;21.00;64.10;;;;;;5088261;28;20074;-86
2022/11/02 06:54:16;;;;;;;32.40;18.98;;;20.90;63.90;;;;;;5077861;28;20056;-84
2022/11/02 06:56:42;;;;;;;27.13;17.58;;;20.70;64.60;;;;;;5078373;28;20111;-90
2022/11/02 06:59:07;;;;;;;29.67;19.35;;;20.60;64.70;;;;;;5084786;28;20427;-82
2022/11/02 07:01:33;;;;;;;29.08;18.30;;;20.60;65.00;;;;;;5089743;28;20513;-81
2022/11/02 07:04:00;;;;;;;27.80;17.83;;;20.60;65.20;;;;;;5085820;28;20380;-83
2022/11/02 07:06:26;;;;;;;28.33;18.17;;;20.80;64.50;;;;;;5085350;28;20024;-85
2022/11/02 07:08:51;;;;;;;29.77;18.67;;;21.00;64.50;;;;;;5083194;28;20035;-84
2022/11/02 07:11:17;;;;;;;29.90;18.08;;;21.10;63.70;;;;;;5078435;28;20016;-84
2022/11/02 07:13:43;;;;;;;27.48;18.40;;;21.30;63.10;;;;;;5087189;28;20051;-81
2022/11/02 07:16:09;;;;;;;26.05;17.65;;;21.20;63.40;;;;;;5083730;28;20112;-82
2022/11/02 07:18:35;;;;;;;28.08;17.65;;;21.30;63.60;;;;;;5089507;28;20047;-86
2022/11/02 07:21:01;;;;;;;26.45;17.23;;;21.30;63.00;;;;;;5090818;28;20107;-84
2022/11/02 07:23:27;;;;;;;28.73;16.80;;;21.40;63.10;;;;;;5083576;28;20086;-81
2022/11/02 07:25:53;;;;;;;25.00;16.08;;;21.70;62.50;;;;;;5083545;28;20024;-83
2022/11/02 07:28:19;;;;;;;26.73;16.08;;;21.60;63.00;;;;;;5093283;28;20074;-82
2022/11/02 07:30:45;;;;;;;27.38;16.63;;;21.30;63.70;;;;;;5092391;28;20107;-82
2022/11/02 07:33:11;;;;;;;25.83;16.58;;;21.20;63.80;;;;;;5089772;28;20111;-82
2022/11/02 07:35:37;;;;;;;27.80;16.50;;;21.20;63.80;;;;;;5083414;28;20082;-85
2022/11/02 07:38:05;;;;;;;24.60;16.67;;;21.30;63.70;;;;;;5073676;28;20479;-87
2022/11/02 07:40:32;;;;;;;24.13;16.15;;;21.40;63.10;;;;;;5078041;28;20384;-83
2022/11/02 07:42:58;;;;;;;30.88;17.00;;;21.40;63.40;;;;;;5082885;28;20039;-82
2022/11/02 07:45:24;;;;;;;27.92;16.95;;;21.50;63.40;;;;;;5089397;28;20020;-90
2022/11/02 07:47:50;;;;;;;34.28;17.75;;;21.30;63.30;;;;;;5093322;28;20051;-84
2022/11/02 07:50:19;;;;;;;27.42;16.88;;;21.30;63.60;;;;;;5093751;28;20101;-82
2022/11/02 07:52:52;;;;;;;26.42;16.02;;;21.20;63.90;;;;;;5094331;28;20032;-83
2022/11/02 07:55:21;;;;;;;24.55;16.48;;;21.00;64.60;;;;;;5080584;28;20032;-84
2022/11/02 07:58:04;;;;;;;23.90;15.85;;;21.00;64.50;;;;;;5080260;28;20024;-85
2022/11/02 08:00:32;;;;;;;30.55;17.80;;;21.20;64.00;;;;;;5091718;28;20059;-86
2022/11/02 08:03:09;;;;;;;27.88;16.17;;;20.90;64.80;;;;;;5094073;28;20021;-89
2022/11/02 08:05:37;;;;;;;27.80;17.10;;;21.00;65.10;;;;;;5075995;28;20095;-85
2022/11/02 08:08:36;;;;;;;28.33;17.90;;;21.00;64.20;;;;;;5075090;28;20032;-89
2022/11/02 08:11:07;;;;;;;25.63;17.00;;;21.10;64.80;;;;;;5045883;28;20040;-83
2022/11/02 08:13:32;;;;;;;;;;;21.10;64.20;;;;;;5072467;28;20029;-82
2022/11/02 08:15:58;;;;;;;23.85;15.65;;;21.10;64.50;;;;;;5055811;28;19905;-88
2022/11/02 08:18:26;;;;;;;27.70;16.65;;;21.10;64.10;;;;;;5055100;28;20392;-82
2022/11/02 08:20:54;;;;;;;25.17;17.10;;;21.00;65.00;;;;;;5084169;28;20423;-83
2022/11/02 08:23:20;;;;;;;27.70;16.35;;;21.20;64.50;;;;;;5053912;28;20036;-82
2022/11/02 08:25:47;;;;;;;25.00;16.55;;;21.50;63.70;;;;;;5055774;28;20040;-85
2022/11/02 08:28:18;;;;;;;27.23;17.17;;;21.60;63.40;;;;;;5038328;28;20071;-83
2022/11/02 08:30:44;;;;;;;25.45;15.57;;;21.70;63.20;;;;;;5060581;28;20048;-88
2022/11/02 08:33:14;;;;;;;26.60;16.67;;;21.70;63.00;;;;;;5072045;28;20036;-87
2022/11/02 08:35:41;;;;;;;23.42;16.05;;;21.70;63.10;;;;;;5054563;28;20062;-86
2022/11/02 08:38:07;;;;;;;28.75;17.10;;;21.50;63.20;;;;;;5054550;28;20111;-84
2022/11/02 08:40:34;;;;;;;25.90;16.25;;;21.60;63.50;;;;;;5071432;28;20489;-84
2022/11/02 08:43:05;;;;;;;25.75;16.48;;;21.90;62.80;;;;;;5079397;28;20371;-86
2022/11/02 08:45:32;;;;;;;26.55;16.95;;;22.10;62.80;;;;;;5076625;28;20016;-93
2022/11/02 08:47:58;;;;;;;25.67;16.65;;;22.40;61.80;;;;;;5083421;28;20035;-85
2022/11/02 08:50:27;;;;;;;26.23;16.38;;;22.40;62.00;;;;;;5092620;28;20032;-83
2022/11/02 08:52:54;;;;;;;27.75;17.40;;;22.40;62.40;;;;;;5091456;28;20384;-86
2022/11/02 08:55:20;;;;;;;27.27;16.80;;;22.40;62.20;;;;;;5079022;28;20052;-84
2022/11/02 08:57:51;;;;;;;25.13;16.98;;;22.70;61.80;;;;;;5073100;28;20362;-84
2022/11/02 09:00:19;;;;;;;27.08;17.63;;;23.00;61.50;;;;;;5073767;28;20076;-85
2022/11/02 09:03:08;;;;;;;29.77;17.02;;;23.20;60.80;;;;;;5083973;28;20032;-85
2022/11/02 09:05:39;;;;;;;25.10;14.75;;;23.40;60.70;;;;;;5073045;28;20024;-80
2022/11/02 09:08:08;;;;;;;26.05;15.95;;;23.30;60.00;;;;;;5073788;28;20024;-84
2022/11/02 09:10:35;;;;;;;25.08;16.42;;;23.10;60.80;;;;;;5080549;28;20028;-85
2022/11/02 09:13:04;;;;;;;21.98;15.32;;;23.20;61.00;;;;;;5084643;28;20030;-88
2022/11/02 09:15:29;;;;;;;28.70;17.65;;;23.20;60.10;;;;;;5073592;28;20032;-82
2022/11/02 09:17:55;;;;;;;25.30;17.77;;;23.10;60.80;;;;;;5072316;28;20028;-86
2022/11/02 09:20:22;;;;;;;23.70;16.52;;;23.40;61.00;;;;;;5071997;28;20027;-86
2022/11/02 09:22:48;;;;;;;25.88;16.63;;;23.80;60.40;;;;;;5072478;28;20025;-87
2022/11/02 09:25:14;;;;;;;27.50;16.88;;;23.80;59.80;;;;;;5072131;28;20025;-89
2022/11/02 09:27:40;;;;;;;23.30;16.30;;;23.80;60.10;;;;;;5073822;28;20544;-88
2022/11/02 09:30:07;;;;;;;26.52;16.40;;;23.60;60.50;;;;;;5072319;28;20050;-89
2022/11/02 09:32:33;;;;;;;25.65;16.48;;;23.50;60.20;;;;;;5073580;28;20044;-85
2022/11/02 09:35:10;;;;;;;27.60;16.85;;;23.50;60.50;;;;;;5072215;28;20067;-85
2022/11/02 09:37:36;;;;;;;25.25;16.77;;;23.70;60.30;;;;;;5072771;28;20032;-86
2022/11/02 09:40:04;;;;;;;25.83;16.88;;;23.90;60.00;;;;;;5072281;28;20430;-85
2022/11/02 09:42:52;;;;;;;25.83;17.10;;;24.00;59.70;;;;;;5072378;28;20027;-82
2022/11/02 09:45:19;;;;;;;23.17;16.70;;;23.80;59.70;;;;;;5072225;28;20028;-84
2022/11/02 09:47:53;;;;;;;27.30;16.13;;;23.60;60.30;;;;;;5073743;28;20025;-85
2022/11/02 09:50:22;;;;;;;24.90;16.08;;;23.40;60.70;;;;;;5067848;28;20397;-86
2022/11/02 09:52:58;;;;;;;23.48;16.30;;;23.70;60.50;;;;;;5072592;28;20475;-82
2022/11/02 09:55:32;;;;;;;24.65;16.08;;;23.80;60.00;;;;;;5072452;28;20024;-89
2022/11/02 09:58:02;;;;;;;24.88;15.60;;;24.00;59.70;;;;;;5072144;28;20028;-83
2022/11/02 10:00:34;;;;;;;23.25;14.82;;;24.40;60.00;;;;;;5071844;28;20052;-79
2022/11/02 10:03:08;;;;;;;24.00;14.68;;;25.10;58.80;;;;;;5072337;28;20380;-86
2022/11/02 10:05:50;;;;;;;21.60;15.30;;;26.10;57.00;;;;;;5073025;28;20027;-86
2022/11/02 10:08:25;;;;;;;21.13;14.90;;;26.80;56.20;;;;;;5073360;28;20024;-83
2022/11/02 10:11:05;;;;;;;21.48;15.25;;;27.10;55.10;;;;;;5072069;28;20025;-83
2022/11/02 10:13:37;;;;;;;23.17;16.08;;;26.90;55.30;;;;;;5072167;28;20016;-86
2022/11/02 10:16:09;;;;;;;22.33;15.55;;;26.40;56.00;;;;;;5072276;28;20032;-84
2022/11/02 10:18:36;;;;;;;24.45;14.70;;;26.10;56.00;;;;;;5072987;28;20035;-87
2022/11/02 10:21:15;;;;;;;22.48;14.18;;;25.80;56.60;;;;;;5072086;28;20021;-93
2022/11/02 10:23:50;;;;;;;27.52;15.82;;;25.40;56.60;;;;;;5072908;28;20541;-87
2022/11/02 10:26:33;;;;;;;27.17;16.27;;;25.20;57.60;;;;;;5072937;28;20017;-83
2022/11/02 10:29:05;;;;;;;24.10;15.45;;;24.90;57.80;;;;;;5072001;28;20032;-86
2022/11/02 10:31:34;;;;;;;22.58;15.82;;;24.70;58.30;;;;;;5073714;28;20020;-85
2022/11/02 10:34:18;;;;;;;23.33;15.30;;;24.90;58.00;;;;;;5076795;28;20357;-82
2022/11/02 10:37:01;;;;;;;21.48;15.07;;;24.60;57.90;;;;;;5075647;28;20384;-85
2022/11/02 10:39:45;;;;;;;28.67;16.67;;;24.40;58.80;;;;;;5076141;28;20070;-79
2022/11/02 10:42:32;;;;;;;24.77;16.02;;;24.40;58.90;;;;;;5075533;28;20021;-86
2022/11/02 10:45:15;;;;;;;25.15;16.35;;;24.40;58.70;;;;;;5075760;28;20025;-86
2022/11/02 10:48:11;;;;;;;24.75;16.73;;;24.40;59.10;;;;;;5071081;28;20024;-87
2022/11/02 10:51:07;;;;;;;23.42;17.15;;;24.30;58.80;;;;;;5075562;28;20040;-82
2022/11/02 10:53:43;;;;;;;27.30;17.92;;;24.00;59.70;;;;;;5075367;28;20033;-88
2022/11/02 10:56:20;;;;;;;27.63;16.63;;;23.50;60.50;;;;;;5071074;28;20020;-80
2022/11/02 10:58:58;;;;;;;26.33;16.52;;;23.50;60.40;;;;;;5076176;28;20027;-90
2022/11/02 11:01:24;;;;;;;87.00;78.50;;;23.50;61.10;;;;;;5075765;28;20040;-91
2022/11/02 11:04:01;;;;;;;28.63;19.33;;;23.70;60.60;;;;;;5075603;28;20020;-87
2022/11/02 11:06:45;;;;;;;28.80;17.48;;;24.10;60.10;;;;;;5075034;28;20020;-89
2022/11/02 11:09:18;;;;;;;24.92;16.63;;;24.30;60.00;;;;;;5075295;28;20516;-86
2022/11/02 11:12:00;;;;;;;29.17;17.70;;;24.30;59.90;;;;;;5076191;28;20525;-87
2022/11/02 11:14:28;;;;;;;24.65;18.35;;;24.30;60.00;;;;;;5075271;28;20025;-85
2022/11/02 11:16:59;;;;;;;25.92;19.42;;;24.40;59.50;;;;;;5076118;28;20027;-85
2022/11/02 11:19:38;;;;;;;26.67;18.15;;;24.40;59.60;;;;;;5074930;28;20040;-91
2022/11/02 11:22:27;;;;;;;29.60;18.92;;;24.40;59.90;;;;;;5074858;28;20035;-88
2022/11/02 11:25:23;;;;;;;35.65;25.17;;;24.40;60.20;;;;;;5068624;28;20118;-84
2022/11/02 11:27:50;;;;;;;29.58;20.27;;;24.50;59.70;;;;;;5074618;28;20017;-79
2022/11/02 11:30:23;;;;;;;28.75;20.98;;;24.30;60.30;;;;;;5074815;28;20079;-80
2022/11/02 11:32:49;;;;;;;32.25;22.42;;;24.00;60.90;;;;;;5074517;28;20031;-81
2022/11/02 11:35:17;;;;;;;28.83;19.45;;;24.10;60.90;;;;;;5074830;28;20493;-88
2022/11/02 11:37:53;;;;;;;25.42;17.63;;;24.20;60.40;;;;;;5074762;28;20107;-86
2022/11/02 11:40:21;;;;;;;24.85;16.83;;;24.60;60.70;;;;;;5075608;28;20075;-91
2022/11/02 11:42:52;;;;;;;25.55;17.85;;;24.80;59.80;;;;;;5074011;28;20029;-84
2022/11/02 11:45:24;;;;;;;27.42;17.55;;;24.90;59.50;;;;;;5074163;28;20020;-79
2022/11/02 11:48:12;;;;;;;25.63;17.48;;;25.10;59.50;;;;;;5074538;28;20078;-88
2022/11/02 11:50:48;;;;;;;22.05;16.95;;;25.10;59.20;;;;;;5074312;28;20504;-90
2022/11/02 11:53:24;;;;;;;26.52;17.88;;;25.10;59.10;;;;;;5074311;28;20029;-87
2022/11/02 11:55:52;;;;;;;25.08;17.73;;;24.90;59.40;;;;;;5075227;28;20024;-88
2022/11/02 11:58:22;;;;;;;23.23;15.93;;;24.70;59.70;;;;;;5075476;28;20029;-87
2022/11/02 12:01:03;;;;;;;24.25;17.13;;;24.60;59.70;;;;;;5073852;28;20045;-90
2022/11/02 12:03:29;;;;;;;31.08;20.92;;;24.70;59.80;;;;;;5074204;28;20063;-90
2022/11/02 12:05:54;;;;;;;37.75;24.92;;;25.00;59.60;;;;;;5075615;28;20056;-83
2022/11/02 12:08:23;;;;;;;34.13;21.70;;;25.10;59.20;;;;;;5073904;28;20089;-88
2022/11/02 12:11:18;;;;;;;24.35;18.10;;;25.10;59.40;;;;;;5074261;28;20039;-85
2022/11/02 12:14:10;;;;;;;28.60;17.92;;;25.20;58.90;;;;;;5064876;28;20028;-87
2022/11/02 12:17:05;;;;;;;23.27;15.82;;;25.20;58.90;;;;;;5074125;28;20028;-86
2022/11/02 12:19:49;;;;;;;22.13;15.48;;;25.30;59.10;;;;;;5073782;28;20135;-88
2022/11/02 12:22:36;;;;;;;21.27;14.52;;;25.10;59.00;;;;;;5073532;28;20036;-87
2022/11/02 12:25:36;;;;;;;21.58;15.25;;;25.30;58.90;;;;;;5073559;28;20467;-88
2022/11/02 12:28:12;;;;;;;20.15;14.82;;;25.50;58.40;;;;;;5074008;28;20029;-87
2022/11/02 12:30:40;;;;;;;20.75;15.43;;;25.30;58.50;;;;;;5073494;28;20083;-85
2022/11/02 12:33:43;;;;;;;27.10;20.08;;;25.50;58.30;;;;;;5073814;28;20020;-87
2022/11/02 12:36:38;;;;;;;19.95;14.93;;;25.60;58.10;;;;;;5073275;28;20033;-91
2022/11/02 12:39:07;;;;;;;20.88;14.82;;;25.60;57.80;;;;;;5073619;28;20028;-89
2022/11/02 12:42:05;;;;;;;18.25;12.93;;;25.50;57.60;;;;;;5073359;28;20025;-82
2022/11/02 12:44:52;;;;;;;20.17;14.02;;;25.50;57.90;;;;;;5035576;28;20048;-84
2022/11/02 12:47:30;;;;;;;20.35;13.70;;;25.70;57.60;;;;;;5035502;28;20021;-87
2022/11/02 12:50:12;;;;;;;20.70;13.20;;;25.80;57.40;;;;;;5052348;28;20118;-88
2022/11/02 12:52:46;;;;;;;20.92;13.43;;;25.80;57.50;;;;;;5035717;28;20070;-89
2022/11/02 12:55:19;;;;;;;18.80;13.07;;;25.80;57.50;;;;;;5051788;28;20533;-88
2022/11/02 12:57:47;;;;;;;17.40;12.23;;;25.90;57.40;;;;;;5052590;28;20057;-86
2022/11/02 13:00:20;;;;;;;18.08;12.57;;;25.90;57.30;;;;;;5035145;28;20057;-86
2022/11/02 13:03:03;;;;;;;20.40;13.50;;;25.90;57.00;;;;;;5035646;28;20048;-88
2022/11/02 13:05:42;;;;;;;22.83;15.02;;;26.00;56.90;;;;;;5035427;28;20021;-90